sensor_id;sensor_type;location;lat;lon;timestamp;P1;durP1;ratioP1;P2;durP2;ratioP2
16401;SDS011;8310;44.626;11.176;2023-09-19T00:00:34;22.23;;;4.85;;
16401;SDS011;8310;44.626;11.176;2023-09-19T00:03:01;17.85;;;4.35;;
16401;SDS011;8310;44.626;11.176;2023-09-19T00:05:34;18.13;;;4.38;;
16401;SDS011;8310;44.626;11.176;2023-09-19T00:08:02;19.67;;;3.97;;
16401;SDS011;8310;44.626;11.176;2023-09-19T00:10:30;27.92;;;4.05;;
16401;SDS011;8310;44.626;11.176;2023-09-19T00:13:03;14.50;;;4.10;;
16401;SDS011;8310;44.626;11.176;2023-09-19T00:15:35;22.17;;;3.63;;
16401;SDS011;8310;44.626;11.176;2023-09-19T00:18:04;21.75;;;4.95;;
16401;SDS011;8310;44.626;11.176;2023-09-19T00:20:35;23.83;;;4.07;;
16401;SDS011;8310;44.626;11.176;2023-09-19T00:23:05;26.70;;;4.32;;
16401;SDS011;8310;44.626;11.176;2023-09-19T00:25:33;20.38;;;4.03;;
16401;SDS011;8310;44.626;11.176;2023-09-19T00:28:01;20.23;;;4.40;;
16401;SDS011;8310;44.626;11.176;2023-09-19T00:30:28;21.90;;;4.30;;
16401;SDS011;8310;44.626;11.176;2023-09-19T00:32:56;24.13;;;4.95;;
16401;SDS011;8310;44.626;11.176;2023-09-19T00:35:23;19.05;;;4.07;;
16401;SDS011;8310;44.626;11.176;2023-09-19T00:37:53;25.27;;;5.18;;
16401;SDS011;8310;44.626;11.176;2023-09-19T00:40:22;17.73;;;5.22;;
16401;SDS011;8310;44.626;11.176;2023-09-19T00:42:49;16.33;;;3.50;;
16401;SDS011;8310;44.626;11.176;2023-09-19T00:45:18;18.65;;;5.32;;
16401;SDS011;8310;44.626;11.176;2023-09-19T00:47:47;25.15;;;4.90;;
16401;SDS011;8310;44.626;11.176;2023-09-19T00:50:16;20.58;;;5.35;;
16401;SDS011;8310;44.626;11.176;2023-09-19T00:52:44;21.58;;;4.68;;
16401;SDS011;8310;44.626;11.176;2023-09-19T00:55:16;22.73;;;4.55;;
16401;SDS011;8310;44.626;11.176;2023-09-19T00:57:45;19.63;;;5.72;;
16401;SDS011;8310;44.626;11.176;2023-09-19T01:00:12;17.35;;;4.43;;
16401;SDS011;8310;44.626;11.176;2023-09-19T01:02:41;20.27;;;4.57;;
16401;SDS011;8310;44.626;11.176;2023-09-19T01:05:09;20.63;;;4.85;;
16401;SDS011;8310;44.626;11.176;2023-09-19T01:07:37;22.83;;;5.47;;
16401;SDS011;8310;44.626;11.176;2023-09-19T01:10:06;24.10;;;4.95;;
16401;SDS011;8310;44.626;11.176;2023-09-19T01:12:41;22.55;;;4.85;;
16401;SDS011;8310;44.626;11.176;2023-09-19T01:15:21;16.58;;;4.55;;
16401;SDS011;8310;44.626;11.176;2023-09-19T01:17:57;21.77;;;4.55;;
16401;SDS011;8310;44.626;11.176;2023-09-19T01:20:31;22.60;;;4.80;;
16401;SDS011;8310;44.626;11.176;2023-09-19T01:23:10;22.15;;;4.82;;
16401;SDS011;8310;44.626;11.176;2023-09-19T01:25:59;23.13;;;5.50;;
16401;SDS011;8310;44.626;11.176;2023-09-19T01:31:39;21.38;;;5.45;;
16401;SDS011;8310;44.626;11.176;2023-09-19T01:34:09;19.85;;;5.35;;
16401;SDS011;8310;44.626;11.176;2023-09-19T01:36:37;17.73;;;6.03;;
16401;SDS011;8310;44.626;11.176;2023-09-19T01:39:05;24.85;;;6.65;;
16401;SDS011;8310;44.626;11.176;2023-09-19T01:41:41;25.02;;;5.80;;
16401;SDS011;8310;44.626;11.176;2023-09-19T01:44:21;19.35;;;6.03;;
16401;SDS011;8310;44.626;11.176;2023-09-19T01:46:53;14.50;;;5.38;;
16401;SDS011;8310;44.626;11.176;2023-09-19T01:49:27;18.95;;;5.82;;
16401;SDS011;8310;44.626;11.176;2023-09-19T01:52:04;19.30;;;5.70;;
16401;SDS011;8310;44.626;11.176;2023-09-19T01:54:40;20.50;;;6.68;;
16401;SDS011;8310;44.626;11.176;2023-09-19T01:57:15;22.80;;;7.80;;
16401;SDS011;8310;44.626;11.176;2023-09-19T01:59:48;23.85;;;6.93;;
16401;SDS011;8310;44.626;11.176;2023-09-19T02:02:23;20.70;;;6.35;;
16401;SDS011;8310;44.626;11.176;2023-09-19T02:04:52;20.35;;;5.82;;
16401;SDS011;8310;44.626;11.176;2023-09-19T02:07:22;23.77;;;7.07;;
16401;SDS011;8310;44.626;11.176;2023-09-19T02:09:49;32.47;;;6.95;;
16401;SDS011;8310;44.626;11.176;2023-09-19T02:12:16;23.92;;;6.20;;
16401;SDS011;8310;44.626;11.176;2023-09-19T02:14:44;18.45;;;6.63;;
16401;SDS011;8310;44.626;11.176;2023-09-19T02:17:11;21.08;;;6.65;;
16401;SDS011;8310;44.626;11.176;2023-09-19T02:19:40;20.90;;;5.70;;
16401;SDS011;8310;44.626;11.176;2023-09-19T02:22:08;21.20;;;5.88;;
16401;SDS011;8310;44.626;11.176;2023-09-19T02:24:35;24.80;;;5.68;;
16401;SDS011;8310;44.626;11.176;2023-09-19T02:27:06;26.65;;;6.82;;
16401;SDS011;8310;44.626;11.176;2023-09-19T02:29:33;24.42;;;6.25;;
16401;SDS011;8310;44.626;11.176;2023-09-19T02:32:01;28.48;;;5.60;;
16401;SDS011;8310;44.626;11.176;2023-09-19T02:34:28;27.67;;;5.93;;
16401;SDS011;8310;44.626;11.176;2023-09-19T02:36:58;15.65;;;5.20;;
16401;SDS011;8310;44.626;11.176;2023-09-19T02:39:25;23.70;;;6.05;;
16401;SDS011;8310;44.626;11.176;2023-09-19T02:41:53;12.57;;;4.55;;
16401;SDS011;8310;44.626;11.176;2023-09-19T02:44:20;17.63;;;4.68;;
16401;SDS011;8310;44.626;11.176;2023-09-19T02:46:49;20.63;;;4.78;;
16401;SDS011;8310;44.626;11.176;2023-09-19T02:49:17;27.08;;;5.47;;
16401;SDS011;8310;44.626;11.176;2023-09-19T02:51:44;17.77;;;5.53;;
16401;SDS011;8310;44.626;11.176;2023-09-19T02:56:42;16.80;;;6.57;;
16401;SDS011;8310;44.626;11.176;2023-09-19T02:59:10;21.33;;;5.90;;
16401;SDS011;8310;44.626;11.176;2023-09-19T03:01:38;21.50;;;6.53;;
16401;SDS011;8310;44.626;11.176;2023-09-19T03:04:06;17.50;;;5.65;;
16401;SDS011;8310;44.626;11.176;2023-09-19T03:06:34;24.98;;;6.35;;
16401;SDS011;8310;44.626;11.176;2023-09-19T03:09:02;16.33;;;5.85;;
16401;SDS011;8310;44.626;11.176;2023-09-19T03:11:32;22.10;;;5.85;;
16401;SDS011;8310;44.626;11.176;2023-09-19T03:14:00;21.30;;;5.28;;
16401;SDS011;8310;44.626;11.176;2023-09-19T03:16:28;21.33;;;5.85;;
16401;SDS011;8310;44.626;11.176;2023-09-19T03:21:25;23.98;;;5.65;;
16401;SDS011;8310;44.626;11.176;2023-09-19T03:23:54;18.30;;;4.93;;
16401;SDS011;8310;44.626;11.176;2023-09-19T03:26:22;16.95;;;6.00;;
16401;SDS011;8310;44.626;11.176;2023-09-19T03:28:53;22.75;;;5.57;;
16401;SDS011;8310;44.626;11.176;2023-09-19T03:31:21;29.52;;;7.03;;
16401;SDS011;8310;44.626;11.176;2023-09-19T03:33:48;21.75;;;5.63;;
16401;SDS011;8310;44.626;11.176;2023-09-19T03:36:16;18.67;;;5.22;;
16401;SDS011;8310;44.626;11.176;2023-09-19T03:38:43;17.05;;;4.35;;
16401;SDS011;8310;44.626;11.176;2023-09-19T03:41:11;22.75;;;5.22;;
16401;SDS011;8310;44.626;11.176;2023-09-19T03:43:42;25.40;;;5.65;;
16401;SDS011;8310;44.626;11.176;2023-09-19T03:46:11;20.23;;;5.30;;
16401;SDS011;8310;44.626;11.176;2023-09-19T03:48:40;18.65;;;5.80;;
16401;SDS011;8310;44.626;11.176;2023-09-19T03:51:07;21.35;;;5.15;;
16401;SDS011;8310;44.626;11.176;2023-09-19T03:56:03;21.13;;;6.25;;
16401;SDS011;8310;44.626;11.176;2023-09-19T03:58:30;19.50;;;5.95;;
16401;SDS011;8310;44.626;11.176;2023-09-19T04:00:59;29.45;;;7.28;;
16401;SDS011;8310;44.626;11.176;2023-09-19T04:03:28;20.35;;;6.63;;
16401;SDS011;8310;44.626;11.176;2023-09-19T04:06:00;26.30;;;7.20;;
16401;SDS011;8310;44.626;11.176;2023-09-19T04:08:28;22.02;;;6.35;;
16401;SDS011;8310;44.626;11.176;2023-09-19T04:10:56;20.55;;;6.40;;
16401;SDS011;8310;44.626;11.176;2023-09-19T04:13:23;18.77;;;5.90;;
16401;SDS011;8310;44.626;11.176;2023-09-19T04:15:52;20.88;;;6.28;;
16401;SDS011;8310;44.626;11.176;2023-09-19T04:18:20;16.52;;;5.10;;
16401;SDS011;8310;44.626;11.176;2023-09-19T04:23:17;16.30;;;6.28;;
16401;SDS011;8310;44.626;11.176;2023-09-19T04:25:46;23.23;;;7.03;;
16401;SDS011;8310;44.626;11.176;2023-09-19T04:28:13;21.77;;;6.13;;
16401;SDS011;8310;44.626;11.176;2023-09-19T04:30:41;21.90;;;6.60;;
16401;SDS011;8310;44.626;11.176;2023-09-19T04:33:08;24.65;;;5.88;;
16401;SDS011;8310;44.626;11.176;2023-09-19T04:35:36;30.70;;;7.25;;
16401;SDS011;8310;44.626;11.176;2023-09-19T04:38:05;23.27;;;7.80;;
16401;SDS011;8310;44.626;11.176;2023-09-19T04:40:33;24.42;;;7.68;;
16401;SDS011;8310;44.626;11.176;2023-09-19T04:43:00;27.60;;;6.93;;
16401;SDS011;8310;44.626;11.176;2023-09-19T04:45:28;22.90;;;7.85;;
16401;SDS011;8310;44.626;11.176;2023-09-19T04:47:56;19.25;;;6.78;;
16401;SDS011;8310;44.626;11.176;2023-09-19T04:50:23;26.02;;;6.40;;
16401;SDS011;8310;44.626;11.176;2023-09-19T04:52:53;19.85;;;6.32;;
16401;SDS011;8310;44.626;11.176;2023-09-19T04:55:21;20.70;;;5.72;;
16401;SDS011;8310;44.626;11.176;2023-09-19T04:57:49;26.40;;;7.20;;
16401;SDS011;8310;44.626;11.176;2023-09-19T05:00:19;17.95;;;6.18;;
16401;SDS011;8310;44.626;11.176;2023-09-19T05:02:49;23.77;;;6.50;;
16401;SDS011;8310;44.626;11.176;2023-09-19T05:05:18;15.98;;;6.82;;
16401;SDS011;8310;44.626;11.176;2023-09-19T05:07:45;18.98;;;5.78;;
16401;SDS011;8310;44.626;11.176;2023-09-19T05:10:13;18.25;;;7.40;;
16401;SDS011;8310;44.626;11.176;2023-09-19T05:12:42;19.20;;;6.18;;
16401;SDS011;8310;44.626;11.176;2023-09-19T05:15:12;25.33;;;7.13;;
16401;SDS011;8310;44.626;11.176;2023-09-19T05:17:47;28.70;;;6.85;;
16401;SDS011;8310;44.626;11.176;2023-09-19T05:20:14;20.35;;;5.60;;
16401;SDS011;8310;44.626;11.176;2023-09-19T05:22:49;21.80;;;6.85;;
16401;SDS011;8310;44.626;11.176;2023-09-19T05:25:17;22.88;;;6.53;;
16401;SDS011;8310;44.626;11.176;2023-09-19T05:27:46;20.67;;;7.15;;
16401;SDS011;8310;44.626;11.176;2023-09-19T05:30:15;22.10;;;6.43;;
16401;SDS011;8310;44.626;11.176;2023-09-19T05:32:46;22.92;;;7.20;;
16401;SDS011;8310;44.626;11.176;2023-09-19T05:35:14;25.48;;;6.43;;
16401;SDS011;8310;44.626;11.176;2023-09-19T05:37:41;22.65;;;6.68;;
16401;SDS011;8310;44.626;11.176;2023-09-19T05:40:08;17.23;;;6.85;;
16401;SDS011;8310;44.626;11.176;2023-09-19T05:42:37;19.77;;;5.88;;
16401;SDS011;8310;44.626;11.176;2023-09-19T05:45:08;24.83;;;6.80;;
16401;SDS011;8310;44.626;11.176;2023-09-19T05:47:37;21.98;;;6.47;;
16401;SDS011;8310;44.626;11.176;2023-09-19T05:52:34;20.75;;;5.75;;
16401;SDS011;8310;44.626;11.176;2023-09-19T05:55:02;19.08;;;5.25;;
16401;SDS011;8310;44.626;11.176;2023-09-19T05:57:32;22.35;;;4.65;;
16401;SDS011;8310;44.626;11.176;2023-09-19T06:00:00;22.95;;;5.63;;
16401;SDS011;8310;44.626;11.176;2023-09-19T06:02:29;19.70;;;4.72;;
16401;SDS011;8310;44.626;11.176;2023-09-19T06:04:56;20.95;;;5.20;;
16401;SDS011;8310;44.626;11.176;2023-09-19T06:07:24;19.55;;;5.25;;
16401;SDS011;8310;44.626;11.176;2023-09-19T06:09:53;26.40;;;6.45;;
16401;SDS011;8310;44.626;11.176;2023-09-19T06:12:21;24.80;;;5.82;;
16401;SDS011;8310;44.626;11.176;2023-09-19T06:14:49;16.13;;;4.28;;
16401;SDS011;8310;44.626;11.176;2023-09-19T06:17:17;21.60;;;5.05;;
16401;SDS011;8310;44.626;11.176;2023-09-19T06:19:46;15.68;;;4.88;;
16401;SDS011;8310;44.626;11.176;2023-09-19T06:22:15;19.60;;;4.45;;
16401;SDS011;8310;44.626;11.176;2023-09-19T06:24:44;17.77;;;5.15;;
16401;SDS011;8310;44.626;11.176;2023-09-19T06:27:13;28.13;;;4.65;;
16401;SDS011;8310;44.626;11.176;2023-09-19T06:29:40;18.45;;;5.18;;
16401;SDS011;8310;44.626;11.176;2023-09-19T06:32:08;23.13;;;4.40;;
16401;SDS011;8310;44.626;11.176;2023-09-19T06:34:36;22.00;;;4.63;;
16401;SDS011;8310;44.626;11.176;2023-09-19T06:37:05;15.32;;;3.95;;
16401;SDS011;8310;44.626;11.176;2023-09-19T06:39:32;17.83;;;4.57;;
16401;SDS011;8310;44.626;11.176;2023-09-19T06:42:01;14.75;;;4.72;;
16401;SDS011;8310;44.626;11.176;2023-09-19T06:44:28;22.70;;;4.13;;
16401;SDS011;8310;44.626;11.176;2023-09-19T06:46:57;21.73;;;4.40;;
16401;SDS011;8310;44.626;11.176;2023-09-19T06:49:25;17.08;;;4.88;;
16401;SDS011;8310;44.626;11.176;2023-09-19T06:51:53;17.02;;;4.85;;
16401;SDS011;8310;44.626;11.176;2023-09-19T06:54:24;35.03;;;14.25;;
16401;SDS011;8310;44.626;11.176;2023-09-19T06:56:55;43.83;;;21.33;;
16401;SDS011;8310;44.626;11.176;2023-09-19T06:59:23;47.97;;;23.65;;
16401;SDS011;8310;44.626;11.176;2023-09-19T07:01:50;54.22;;;24.80;;
16401;SDS011;8310;44.626;11.176;2023-09-19T07:04:18;60.65;;;26.95;;
16401;SDS011;8310;44.626;11.176;2023-09-19T07:06:48;43.33;;;19.80;;
16401;SDS011;8310;44.626;11.176;2023-09-19T07:09:16;31.73;;;11.15;;
16401;SDS011;8310;44.626;11.176;2023-09-19T07:11:46;30.15;;;8.40;;
16401;SDS011;8310;44.626;11.176;2023-09-19T07:14:16;26.45;;;8.57;;
16401;SDS011;8310;44.626;11.176;2023-09-19T07:16:44;28.52;;;6.97;;
16401;SDS011;8310;44.626;11.176;2023-09-19T07:19:12;27.38;;;7.72;;
16401;SDS011;8310;44.626;11.176;2023-09-19T07:21:40;29.48;;;9.20;;
16401;SDS011;8310;44.626;11.176;2023-09-19T07:24:08;30.92;;;9.80;;
16401;SDS011;8310;44.626;11.176;2023-09-19T07:26:36;31.73;;;11.05;;
16401;SDS011;8310;44.626;11.176;2023-09-19T07:29:09;37.15;;;12.73;;
16401;SDS011;8310;44.626;11.176;2023-09-19T07:31:36;28.98;;;12.82;;
16401;SDS011;8310;44.626;11.176;2023-09-19T07:34:04;39.45;;;12.75;;
16401;SDS011;8310;44.626;11.176;2023-09-19T07:36:33;31.30;;;11.82;;
16401;SDS011;8310;44.626;11.176;2023-09-19T07:39:02;36.05;;;12.73;;
16401;SDS011;8310;44.626;11.176;2023-09-19T07:41:31;31.17;;;14.30;;
16401;SDS011;8310;44.626;11.176;2023-09-19T07:43:58;30.73;;;12.60;;
16401;SDS011;8310;44.626;11.176;2023-09-19T07:46:27;32.47;;;11.85;;
16401;SDS011;8310;44.626;11.176;2023-09-19T07:48:56;35.47;;;12.63;;
16401;SDS011;8310;44.626;11.176;2023-09-19T07:51:24;33.83;;;13.07;;
16401;SDS011;8310;44.626;11.176;2023-09-19T07:56:19;29.75;;;11.63;;
16401;SDS011;8310;44.626;11.176;2023-09-19T08:01:15;26.40;;;11.32;;
16401;SDS011;8310;44.626;11.176;2023-09-19T08:03:44;30.80;;;12.82;;
16401;SDS011;8310;44.626;11.176;2023-09-19T08:06:11;32.42;;;11.55;;
16401;SDS011;8310;44.626;11.176;2023-09-19T08:08:40;32.20;;;11.50;;
16401;SDS011;8310;44.626;11.176;2023-09-19T08:11:07;27.75;;;11.52;;
16401;SDS011;8310;44.626;11.176;2023-09-19T08:13:37;39.53;;;12.27;;
16401;SDS011;8310;44.626;11.176;2023-09-19T08:16:08;25.65;;;11.35;;
16401;SDS011;8310;44.626;11.176;2023-09-19T08:18:36;26.95;;;11.68;;
16401;SDS011;8310;44.626;11.176;2023-09-19T08:21:06;32.55;;;11.52;;
16401;SDS011;8310;44.626;11.176;2023-09-19T08:23:35;28.50;;;11.60;;
16401;SDS011;8310;44.626;11.176;2023-09-19T08:26:03;26.88;;;11.45;;
16401;SDS011;8310;44.626;11.176;2023-09-19T08:28:31;28.60;;;10.95;;
16401;SDS011;8310;44.626;11.176;2023-09-19T08:31:01;33.13;;;12.05;;
16401;SDS011;8310;44.626;11.176;2023-09-19T08:33:31;28.35;;;12.23;;
16401;SDS011;8310;44.626;11.176;2023-09-19T08:38:28;38.17;;;11.02;;
16401;SDS011;8310;44.626;11.176;2023-09-19T08:40:57;32.60;;;11.73;;
16401;SDS011;8310;44.626;11.176;2023-09-19T08:43:25;30.58;;;9.85;;
16401;SDS011;8310;44.626;11.176;2023-09-19T08:45:54;21.60;;;9.13;;
16401;SDS011;8310;44.626;11.176;2023-09-19T08:48:30;30.45;;;9.80;;
16401;SDS011;8310;44.626;11.176;2023-09-19T08:51:02;24.23;;;9.70;;
16401;SDS011;8310;44.626;11.176;2023-09-19T08:53:36;25.67;;;8.98;;
16401;SDS011;8310;44.626;11.176;2023-09-19T08:56:12;24.02;;;9.25;;
16401;SDS011;8310;44.626;11.176;2023-09-19T08:58:43;27.08;;;9.60;;
16401;SDS011;8310;44.626;11.176;2023-09-19T09:01:15;28.15;;;9.27;;
16401;SDS011;8310;44.626;11.176;2023-09-19T09:03:51;25.88;;;9.55;;
16401;SDS011;8310;44.626;11.176;2023-09-19T09:06:19;26.90;;;8.35;;
16401;SDS011;8310;44.626;11.176;2023-09-19T09:08:48;28.48;;;8.50;;
16401;SDS011;8310;44.626;11.176;2023-09-19T09:11:17;23.13;;;7.53;;
16401;SDS011;8310;44.626;11.176;2023-09-19T09:13:45;24.00;;;8.93;;
16401;SDS011;8310;44.626;11.176;2023-09-19T09:16:14;25.92;;;9.27;;
16401;SDS011;8310;44.626;11.176;2023-09-19T09:18:44;21.67;;;8.27;;
16401;SDS011;8310;44.626;11.176;2023-09-19T09:21:11;21.75;;;8.35;;
16401;SDS011;8310;44.626;11.176;2023-09-19T09:23:40;23.90;;;7.97;;
16401;SDS011;8310;44.626;11.176;2023-09-19T09:26:09;23.67;;;7.82;;
16401;SDS011;8310;44.626;11.176;2023-09-19T09:28:38;34.25;;;9.57;;
16401;SDS011;8310;44.626;11.176;2023-09-19T09:31:21;20.90;;;8.73;;
16401;SDS011;8310;44.626;11.176;2023-09-19T09:33:52;23.55;;;6.30;;
16401;SDS011;8310;44.626;11.176;2023-09-19T09:36:33;16.90;;;5.57;;
16401;SDS011;8310;44.626;11.176;2023-09-19T09:39:01;22.05;;;8.75;;
16401;SDS011;8310;44.626;11.176;2023-09-19T09:41:42;19.92;;;7.20;;
16401;SDS011;8310;44.626;11.176;2023-09-19T09:44:14;32.50;;;8.70;;
16401;SDS011;8310;44.626;11.176;2023-09-19T09:46:44;19.45;;;6.70;;
16401;SDS011;8310;44.626;11.176;2023-09-19T09:49:40;22.35;;;5.70;;
16401;SDS011;8310;44.626;11.176;2023-09-19T09:52:19;28.67;;;6.65;;
16401;SDS011;8310;44.626;11.176;2023-09-19T09:54:58;20.92;;;5.57;;
16401;SDS011;8310;44.626;11.176;2023-09-19T09:57:32;18.77;;;5.55;;
16401;SDS011;8310;44.626;11.176;2023-09-19T09:59:59;18.00;;;5.20;;
16401;SDS011;8310;44.626;11.176;2023-09-19T10:02:41;19.25;;;5.55;;
16401;SDS011;8310;44.626;11.176;2023-09-19T10:05:12;22.15;;;5.55;;
16401;SDS011;8310;44.626;11.176;2023-09-19T10:07:46;18.08;;;5.93;;
16401;SDS011;8310;44.626;11.176;2023-09-19T10:10:15;24.45;;;5.57;;
16401;SDS011;8310;44.626;11.176;2023-09-19T10:13:04;17.65;;;4.75;;
16401;SDS011;8310;44.626;11.176;2023-09-19T10:15:33;20.35;;;4.70;;
16401;SDS011;8310;44.626;11.176;2023-09-19T10:18:01;16.75;;;3.55;;
16401;SDS011;8310;44.626;11.176;2023-09-19T10:20:33;22.85;;;4.50;;
16401;SDS011;8310;44.626;11.176;2023-09-19T10:23:05;16.73;;;4.95;;
16401;SDS011;8310;44.626;11.176;2023-09-19T10:25:36;14.52;;;4.25;;
16401;SDS011;8310;44.626;11.176;2023-09-19T10:28:07;25.40;;;4.45;;
16401;SDS011;8310;44.626;11.176;2023-09-19T10:30:37;16.52;;;5.07;;
16401;SDS011;8310;44.626;11.176;2023-09-19T10:33:09;21.90;;;4.78;;
16401;SDS011;8310;44.626;11.176;2023-09-19T10:35:38;21.95;;;5.15;;
16401;SDS011;8310;44.626;11.176;2023-09-19T10:38:09;20.95;;;4.18;;
16401;SDS011;8310;44.626;11.176;2023-09-19T10:40:38;16.33;;;4.28;;
16401;SDS011;8310;44.626;11.176;2023-09-19T10:43:13;13.90;;;3.83;;
16401;SDS011;8310;44.626;11.176;2023-09-19T10:45:43;18.27;;;4.63;;
16401;SDS011;8310;44.626;11.176;2023-09-19T10:48:14;14.05;;;3.75;;
16401;SDS011;8310;44.626;11.176;2023-09-19T10:50:44;17.50;;;3.90;;
16401;SDS011;8310;44.626;11.176;2023-09-19T10:53:14;14.93;;;3.63;;
16401;SDS011;8310;44.626;11.176;2023-09-19T10:55:47;19.48;;;4.22;;
16401;SDS011;8310;44.626;11.176;2023-09-19T10:58:28;15.98;;;4.28;;
16401;SDS011;8310;44.626;11.176;2023-09-19T11:00:59;18.92;;;5.32;;
16401;SDS011;8310;44.626;11.176;2023-09-19T11:03:27;13.02;;;3.70;;
16401;SDS011;8310;44.626;11.176;2023-09-19T11:06:01;14.60;;;3.40;;
16401;SDS011;8310;44.626;11.176;2023-09-19T11:11:39;11.13;;;3.65;;
16401;SDS011;8310;44.626;11.176;2023-09-19T11:14:14;15.25;;;3.47;;
16401;SDS011;8310;44.626;11.176;2023-09-19T11:23:17;25.27;;;4.30;;
16401;SDS011;8310;44.626;11.176;2023-09-19T11:25:54;18.35;;;3.75;;
16401;SDS011;8310;44.626;11.176;2023-09-19T11:28:29;16.27;;;3.75;;
16401;SDS011;8310;44.626;11.176;2023-09-19T11:30:57;19.98;;;4.07;;
16401;SDS011;8310;44.626;11.176;2023-09-19T11:33:26;14.05;;;3.67;;
16401;SDS011;8310;44.626;11.176;2023-09-19T11:35:58;14.18;;;4.03;;
16401;SDS011;8310;44.626;11.176;2023-09-19T11:41:38;16.77;;;3.70;;
16401;SDS011;8310;44.626;11.176;2023-09-19T11:47:01;13.93;;;3.90;;
16401;SDS011;8310;44.626;11.176;2023-09-19T11:49:29;15.75;;;4.00;;
16401;SDS011;8310;44.626;11.176;2023-09-19T11:51:57;14.45;;;3.47;;
16401;SDS011;8310;44.626;11.176;2023-09-19T11:54:26;13.88;;;3.72;;
16401;SDS011;8310;44.626;11.176;2023-09-19T11:56:56;12.68;;;3.92;;
16401;SDS011;8310;44.626;11.176;2023-09-19T11:59:25;11.55;;;3.00;;
16401;SDS011;8310;44.626;11.176;2023-09-19T12:01:55;9.75;;;3.25;;
16401;SDS011;8310;44.626;11.176;2023-09-19T12:04:35;14.73;;;3.80;;
16401;SDS011;8310;44.626;11.176;2023-09-19T12:07:04;14.95;;;4.03;;
16401;SDS011;8310;44.626;11.176;2023-09-19T12:09:37;14.45;;;3.70;;
16401;SDS011;8310;44.626;11.176;2023-09-19T12:12:09;13.65;;;4.25;;
16401;SDS011;8310;44.626;11.176;2023-09-19T12:14:37;11.35;;;3.60;;
16401;SDS011;8310;44.626;11.176;2023-09-19T12:17:07;12.27;;;3.95;;
16401;SDS011;8310;44.626;11.176;2023-09-19T12:22:03;16.58;;;4.32;;
16401;SDS011;8310;44.626;11.176;2023-09-19T12:24:31;15.38;;;3.83;;
16401;SDS011;8310;44.626;11.176;2023-09-19T12:27:00;15.43;;;3.67;;
16401;SDS011;8310;44.626;11.176;2023-09-19T12:29:31;12.00;;;3.80;;
16401;SDS011;8310;44.626;11.176;2023-09-19T12:32:08;12.63;;;3.97;;
16401;SDS011;8310;44.626;11.176;2023-09-19T12:37:08;11.48;;;4.07;;
16401;SDS011;8310;44.626;11.176;2023-09-19T12:39:41;17.55;;;3.50;;
16401;SDS011;8310;44.626;11.176;2023-09-19T12:42:09;14.63;;;3.33;;
16401;SDS011;8310;44.626;11.176;2023-09-19T12:44:43;14.30;;;3.05;;
16401;SDS011;8310;44.626;11.176;2023-09-19T12:47:12;14.57;;;3.42;;
16401;SDS011;8310;44.626;11.176;2023-09-19T12:52:43;9.23;;;3.60;;
16401;SDS011;8310;44.626;11.176;2023-09-19T12:55:22;15.70;;;3.70;;
16401;SDS011;8310;44.626;11.176;2023-09-19T12:58:11;11.73;;;2.90;;
16401;SDS011;8310;44.626;11.176;2023-09-19T13:00:40;14.93;;;3.42;;
16401;SDS011;8310;44.626;11.176;2023-09-19T13:03:12;16.30;;;3.45;;
16401;SDS011;8310;44.626;11.176;2023-09-19T13:05:57;7.55;;;2.65;;
16401;SDS011;8310;44.626;11.176;2023-09-19T13:08:26;12.80;;;3.30;;
16401;SDS011;8310;44.626;11.176;2023-09-19T13:11:04;13.50;;;3.28;;
16401;SDS011;8310;44.626;11.176;2023-09-19T13:14:14;10.02;;;2.90;;
16401;SDS011;8310;44.626;11.176;2023-09-19T13:16:55;10.93;;;3.30;;
16401;SDS011;8310;44.626;11.176;2023-09-19T13:19:38;10.07;;;3.40;;
16401;SDS011;8310;44.626;11.176;2023-09-19T13:30:06;11.40;;;3.25;;
16401;SDS011;8310;44.626;11.176;2023-09-19T13:32:35;12.82;;;3.20;;
16401;SDS011;8310;44.626;11.176;2023-09-19T13:35:05;14.40;;;3.40;;
16401;SDS011;8310;44.626;11.176;2023-09-19T13:37:34;14.63;;;3.75;;
16401;SDS011;8310;44.626;11.176;2023-09-19T13:40:08;18.13;;;3.80;;
16401;SDS011;8310;44.626;11.176;2023-09-19T13:42:37;15.13;;;3.40;;
16401;SDS011;8310;44.626;11.176;2023-09-19T13:45:05;17.23;;;3.30;;
16401;SDS011;8310;44.626;11.176;2023-09-19T13:47:40;10.57;;;3.25;;
16401;SDS011;8310;44.626;11.176;2023-09-19T13:50:08;13.50;;;3.60;;
16401;SDS011;8310;44.626;11.176;2023-09-19T13:52:36;13.40;;;3.72;;
16401;SDS011;8310;44.626;11.176;2023-09-19T13:55:04;12.52;;;3.03;;
16401;SDS011;8310;44.626;11.176;2023-09-19T13:57:33;11.00;;;3.88;;
16401;SDS011;8310;44.626;11.176;2023-09-19T14:00:01;12.77;;;3.42;;
16401;SDS011;8310;44.626;11.176;2023-09-19T14:02:30;12.55;;;3.70;;
16401;SDS011;8310;44.626;11.176;2023-09-19T14:04:58;9.30;;;3.15;;
16401;SDS011;8310;44.626;11.176;2023-09-19T14:07:25;11.13;;;3.40;;
16401;SDS011;8310;44.626;11.176;2023-09-19T14:09:52;13.45;;;3.42;;
16401;SDS011;8310;44.626;11.176;2023-09-19T14:12:20;15.88;;;3.90;;
16401;SDS011;8310;44.626;11.176;2023-09-19T14:14:49;15.38;;;3.67;;
16401;SDS011;8310;44.626;11.176;2023-09-19T14:17:18;10.63;;;2.95;;
16401;SDS011;8310;44.626;11.176;2023-09-19T14:22:13;20.65;;;3.72;;
16401;SDS011;8310;44.626;11.176;2023-09-19T14:24:41;11.80;;;3.85;;
16401;SDS011;8310;44.626;11.176;2023-09-19T14:27:09;14.50;;;3.55;;
16401;SDS011;8310;44.626;11.176;2023-09-19T14:29:36;15.80;;;3.50;;
16401;SDS011;8310;44.626;11.176;2023-09-19T14:32:06;13.90;;;4.05;;
16401;SDS011;8310;44.626;11.176;2023-09-19T14:34:34;13.68;;;3.30;;
16401;SDS011;8310;44.626;11.176;2023-09-19T14:37:07;18.52;;;3.83;;
16401;SDS011;8310;44.626;11.176;2023-09-19T14:39:35;15.27;;;3.47;;
16401;SDS011;8310;44.626;11.176;2023-09-19T14:42:04;14.70;;;3.63;;
16401;SDS011;8310;44.626;11.176;2023-09-19T14:44:31;14.73;;;3.28;;
16401;SDS011;8310;44.626;11.176;2023-09-19T14:46:59;12.15;;;3.75;;
16401;SDS011;8310;44.626;11.176;2023-09-19T14:49:28;15.52;;;3.60;;
16401;SDS011;8310;44.626;11.176;2023-09-19T14:51:55;11.95;;;3.58;;
16401;SDS011;8310;44.626;11.176;2023-09-19T14:54:23;23.55;;;4.00;;
16401;SDS011;8310;44.626;11.176;2023-09-19T14:56:50;14.50;;;3.40;;
16401;SDS011;8310;44.626;11.176;2023-09-19T14:59:29;14.73;;;3.13;;
16401;SDS011;8310;44.626;11.176;2023-09-19T15:01:57;13.07;;;3.25;;
16401;SDS011;8310;44.626;11.176;2023-09-19T15:04:25;10.85;;;3.35;;
16401;SDS011;8310;44.626;11.176;2023-09-19T15:06:55;16.33;;;3.53;;
16401;SDS011;8310;44.626;11.176;2023-09-19T15:09:22;19.13;;;3.83;;
16401;SDS011;8310;44.626;11.176;2023-09-19T15:11:51;12.90;;;4.15;;
16401;SDS011;8310;44.626;11.176;2023-09-19T15:14:19;15.15;;;3.40;;
16401;SDS011;8310;44.626;11.176;2023-09-19T15:16:46;15.20;;;3.15;;
16401;SDS011;8310;44.626;11.176;2023-09-19T15:19:16;16.02;;;3.53;;
16401;SDS011;8310;44.626;11.176;2023-09-19T15:21:44;13.63;;;3.15;;
16401;SDS011;8310;44.626;11.176;2023-09-19T15:24:13;13.48;;;3.45;;
16401;SDS011;8310;44.626;11.176;2023-09-19T15:26:40;11.95;;;3.53;;
16401;SDS011;8310;44.626;11.176;2023-09-19T15:29:09;11.35;;;3.28;;
16401;SDS011;8310;44.626;11.176;2023-09-19T15:31:38;13.57;;;3.30;;
16401;SDS011;8310;44.626;11.176;2023-09-19T15:34:06;9.07;;;3.17;;
16401;SDS011;8310;44.626;11.176;2023-09-19T15:36:33;11.90;;;3.30;;
16401;SDS011;8310;44.626;11.176;2023-09-19T15:39:02;16.83;;;3.45;;
16401;SDS011;8310;44.626;11.176;2023-09-19T15:41:32;14.82;;;3.83;;
16401;SDS011;8310;44.626;11.176;2023-09-19T15:44:10;15.07;;;2.88;;
16401;SDS011;8310;44.626;11.176;2023-09-19T15:46:38;10.63;;;3.40;;